Grand River, Iowa
Current Conditions -  °F | °C
As of 11:53 AM on Tuesday 21 Oct 2014 (Local Time) from KLWD Reporting Station
Clear Clear  
Wind Chill: 65°   Ceiling: Unl
Heat Index: 65°   Visibility: 10mi
Dew Point: 48°   Wind: 5mph
Humidity: 54%   Direction: 60°ENE
Pressure: 30.14"   Gusts: NA
Location:  40.82°N, 93.96°W
Report Text: KLWD 211653Z AUTO 06004KT 10SM CLR 18/09 A3014 RMK AO2 SLP207 T01830089
Loading
Personal Weather Stations






























Interactive Weather Map
Tropical Storm Tracking
New forecast layout! Learn more

10-Day Weather Forecast

Advertisements
Track Severe Weather on mobile